All Star Atlas — H3OV — position and weather

sailwx.info

Track history (hours):
 
Tides and Currents Weather Stations Pressure Air Temp Water Temp Dewpoint Dewpoint Depression Visibility Wind Speed Wind Dir Waves Ship Positions

All Star Atlas

Last reported at 2017-Nov-15 18:55 UTC. Time now 2017-Nov-22 07:34 UTC.
Position S 25°39' W 048°06'.

Length 199 m; draft 7.9 m.

Type: Cargo ship. MMSI: 355737000.

Date/timePositionNaut miles runAvg speedWind from/ knotsBaromVisibWave heightAir tempDewpointWater temp
2017-Nov-15 18:55S 25°39' W 048°06'0 0.0
2017-Nov-14 17:55S 25°39' W 048°06'0 0.1
2017-Nov-14 17:07S 25°39' W 048°06'0 0.2
2017-Nov-14 16:55S 25°39' W 048°06'0 0.0
2017-Nov-14 14:16S 25°39' W 048°06'31 0.8
2017-Nov-13 01:18S 25°20' W 047°39'310.9
2017-Nov-13 01:00S 25°19' W 047°35'611.2
2017-Nov-13 00:28S 25°16' W 047°30'711.3
2017-Nov-12 23:51S 25°12' W 047°23'411.6
2017-Nov-12 23:31S 25°10' W 047°19'611.6
2017-Nov-12 23:01S 25°07' W 047°13'611.7
2017-Nov-12 22:30S 25°05' W 047°08'611.9
2017-Nov-12 22:00S 25°02' W 047°02'612.0
2017-Nov-12 21:30S 24°59' W 046°56'611.9
2017-Nov-12 21:00S 24°56' W 046°51'611.9
2017-Nov-12 20:31S 24°53' W 046°45'611.8
2017-Nov-12 20:01S 24°50' W 046°39'611.6
2017-Nov-12 19:31S 24°47' W 046°34'611.4
2017-Nov-12 19:00S 24°44' W 046°28'611.3
2017-Nov-12 18:31S 24°42' W 046°23'611.3
2017-Nov-12 18:01S 24°39' W 046°17'611.2
2017-Nov-12 17:31S 24°36' W 046°12'611.1
2017-Nov-12 17:00S 24°33' W 046°07'611.2
2017-Nov-12 16:31S 24°31' W 046°01'611.3
2017-Nov-12 16:01S 24°28' W 045°56'611.1
2017-Nov-12 15:30S 24°25' W 045°50'611.1
2017-Nov-12 15:00S 24°23' W 045°45'611.4
2017-Nov-12 14:31S 24°20' W 045°40'611.4
2017-Nov-12 14:00S 24°17' W 045°34'611.3
2017-Nov-12 13:31S 24°14' W 045°29'611.5
2017-Nov-12 13:00S 24°12' W 045°23'611.5
2017-Nov-12 12:31S 24°09' W 045°18'611.5
2017-Nov-12 12:00S 24°06' W 045°12'611.7
2017-Nov-12 11:30S 24°02' W 045°07'612.0
2017-Nov-12 11:01S 23°59' W 045°02'  
Track history (hours):
 
Tides and Currents Weather Stations Pressure Air Temp Water Temp Dewpoint Dewpoint Depression Visibility Wind Speed Wind Dir Waves Ship Positions

All Star Atlas

Last reported at 2017-Nov-15 18:55 UTC. Time now 2017-Nov-22 07:34 UTC.
Position S 25°39' W 048°06'.

Length 199 m; draft 7.9 m.

Type: Cargo ship. MMSI: 355737000.

Date/timePositionNaut miles runAvg speedWind from/ knotsBaromVisibWave heightAir tempDewpointWater temp
2017-Nov-15 18:55S 25°39' W 048°06'0 0.0
2017-Nov-14 17:55S 25°39' W 048°06'0 0.1
2017-Nov-14 17:07S 25°39' W 048°06'0 0.2
2017-Nov-14 16:55S 25°39' W 048°06'0 0.0
2017-Nov-14 14:16S 25°39' W 048°06'31 0.8
2017-Nov-13 01:18S 25°20' W 047°39'310.9
2017-Nov-13 01:00S 25°19' W 047°35'611.2
2017-Nov-13 00:28S 25°16' W 047°30'711.3
2017-Nov-12 23:51S 25°12' W 047°23'411.6
2017-Nov-12 23:31S 25°10' W 047°19'611.6
2017-Nov-12 23:01S 25°07' W 047°13'611.7
2017-Nov-12 22:30S 25°05' W 047°08'611.9
2017-Nov-12 22:00S 25°02' W 047°02'612.0
2017-Nov-12 21:30S 24°59' W 046°56'611.9
2017-Nov-12 21:00S 24°56' W 046°51'611.9
2017-Nov-12 20:31S 24°53' W 046°45'611.8
2017-Nov-12 20:01S 24°50' W 046°39'611.6
2017-Nov-12 19:31S 24°47' W 046°34'611.4
2017-Nov-12 19:00S 24°44' W 046°28'611.3
2017-Nov-12 18:31S 24°42' W 046°23'611.3
2017-Nov-12 18:01S 24°39' W 046°17'611.2
2017-Nov-12 17:31S 24°36' W 046°12'611.1
2017-Nov-12 17:00S 24°33' W 046°07'611.2
2017-Nov-12 16:31S 24°31' W 046°01'611.3
2017-Nov-12 16:01S 24°28' W 045°56'611.1
2017-Nov-12 15:30S 24°25' W 045°50'611.1
2017-Nov-12 15:00S 24°23' W 045°45'611.4
2017-Nov-12 14:31S 24°20' W 045°40'611.4
2017-Nov-12 14:00S 24°17' W 045°34'611.3
2017-Nov-12 13:31S 24°14' W 045°29'611.5
2017-Nov-12 13:00S 24°12' W 045°23'611.5
2017-Nov-12 12:31S 24°09' W 045°18'611.5
2017-Nov-12 12:00S 24°06' W 045°12'611.7
2017-Nov-12 11:30S 24°02' W 045°07'612.0
2017-Nov-12 11:01S 23°59' W 045°02'  

Dump ship's entire track history